Time;durP1;ratioP1;P1;durP2;ratioP2;P2;SDS_P1;SDS_P2;PMS_P1;PMS_P2;Temp;Humidity;BMP_temperature;BMP_pressure;BME280_temperature;BME280_humidity;BME280_pressure;Samples;Min_cycle;Max_cycle;Signal;HPM_P1;HPM_P2
2022/09/28 00:00:21;;;;;;;13.02;11.63;;;;;;;8.20;100.00;94901.22;6172985;23;20007;-63
2022/09/28 00:02:47;;;;;;;11.93;10.65;;;;;;;8.21;100.00;94904.66;6175283;23;20553;-63
2022/09/28 00:05:12;;;;;;;8.73;8.02;;;;;;;8.20;100.00;94901.22;6176323;23;19993;-62
2022/09/28 00:07:37;;;;;;;9.05;6.38;;;;;;;8.22;100.00;94894.00;6175960;23;20466;-60
2022/09/28 00:10:03;;;;;;;9.88;5.53;;;;;;;8.23;100.00;94900.91;6175320;23;20005;-60
2022/09/28 00:12:30;;;;;;;4.68;4.28;;;;;;;8.25;100.00;94892.91;6176147;23;20434;-60
2022/09/28 00:14:55;;;;;;;9.10;4.68;;;;;;;8.62;100.00;94896.41;6176518;23;20072;-61
2022/09/28 00:17:22;;;;;;;7.07;5.03;;;;;;;8.58;100.00;94891.47;6174948;23;20020;-60
2022/09/28 00:19:48;;;;;;;6.60;5.80;;;;;;;8.51;100.00;94890.44;6176001;23;20056;-60
2022/09/28 00:22:14;;;;;;;6.90;5.47;;;;;;;8.37;100.00;94885.66;6176523;23;20455;-62
2022/09/28 00:24:40;;;;;;;5.47;4.50;;;;;;;8.35;100.00;94890.22;6176143;23;20443;-60
2022/09/28 00:27:05;;;;;;;4.75;4.32;;;;;;;8.30;100.00;94882.78;6176151;23;20005;-64
2022/09/28 00:29:33;;;;;;;10.20;4.85;;;;;;;8.22;100.00;94880.91;6175914;23;20020;-63
2022/09/28 00:32:08;;;;;;;5.70;3.90;;;;;;;8.14;100.00;94875.59;6176593;23;20031;-63
2022/09/28 00:34:36;;;;;;;7.15;4.30;;;;;;;8.12;100.00;94880.97;6176643;23;20017;-63
2022/09/28 00:37:04;;;;;;;6.30;5.35;;;;;;;8.12;100.00;94885.41;6176548;23;20001;-63
2022/09/28 00:39:34;;;;;;;6.00;5.55;;;;;;;8.05;100.00;94882.53;6173984;23;20031;-63
2022/09/28 00:42:00;;;;;;;12.30;6.45;;;;;;;8.03;100.00;94889.72;6176367;23;20054;-64
2022/09/28 00:44:26;;;;;;;7.15;6.32;;;;;;;8.05;100.00;94884.31;6176464;23;20422;-63
2022/09/28 00:46:57;;;;;;;7.20;6.20;;;;;;;8.07;100.00;94890.22;6176456;23;20063;-63
2022/09/28 00:49:43;;;;;;;11.18;8.45;;;;;;;8.02;100.00;94891.50;6175371;23;19997;-62
2022/09/28 00:52:13;;;;;;;27.13;19.60;;;;;;;8.07;100.00;94884.97;6175407;22;20023;-61
2022/09/28 00:54:42;;;;;;;17.13;13.55;;;;;;;8.09;100.00;94886.50;6176061;23;20073;-62
2022/09/28 00:57:08;;;;;;;10.32;8.77;;;;;;;8.12;100.00;94893.25;6176254;23;20005;-62
2022/09/28 00:59:34;;;;;;;8.35;6.63;;;;;;;8.11;100.00;94895.03;6175849;23;20649;-63
2022/09/28 01:02:00;;;;;;;5.63;5.10;;;;;;;8.14;100.00;94901.81;6176336;23;20009;-62
2022/09/28 01:04:26;;;;;;;6.00;4.95;;;;;;;8.12;100.00;94896.69;6175872;23;20089;-61
2022/09/28 01:06:52;;;;;;;7.38;4.47;;;;;;;8.12;100.00;94896.69;6176063;23;20001;-70
2022/09/28 01:09:19;;;;;;;16.42;4.72;;;;;;;8.10;100.00;94903.06;6175336;23;20001;-70
2022/09/28 01:11:45;;;;;;;5.32;4.32;;;;;;;8.10;100.00;94884.72;6150195;23;20084;-70
2022/09/28 01:14:13;;;;;;;4.50;3.78;;;;;;;8.10;100.00;94884.72;6176878;23;19997;-70
2022/09/28 01:16:51;;;;;;;8.07;4.68;;;;;;;8.08;100.00;94876.19;6176727;23;19997;-70
2022/09/28 01:19:41;;;;;;;7.15;6.45;;;;;;;8.10;100.00;94876.84;6176286;23;19997;-70
2022/09/28 01:22:29;;;;;;;22.20;19.83;;;;;;;8.13;100.00;94848.53;6177777;23;20008;-60
2022/09/28 01:25:06;;;;;;;23.05;20.70;;;;;;;8.14;100.00;94839.69;6177444;23;20009;-65
2022/09/28 01:28:03;;;;;;;22.60;20.30;;;;;;;8.12;100.00;94831.16;6177112;23;19997;-64
2022/09/28 01:30:36;;;;;;;24.60;22.10;;;;;;;8.13;100.00;94832.78;6176790;23;20058;-64
2022/09/28 01:33:11;;;;;;;26.13;23.67;;;;;;;8.15;100.00;94836.09;6177564;23;20358;-64
2022/09/28 01:35:42;;;;;;;20.05;18.15;;;;;;;8.18;100.00;94829.75;6177215;23;20005;-64
2022/09/28 01:38:21;;;;;;;16.35;14.80;;;;;;;8.16;100.00;94834.31;6176353;23;20008;-64
2022/09/28 01:40:48;;;;;;;8.63;7.78;;;;;;;8.11;100.00;94828.69;6177174;23;20355;-70
2022/09/28 01:43:18;;;;;;;20.52;18.58;;;;;;;8.07;100.00;94812.41;6177398;23;20789;-60
2022/09/28 01:45:47;;;;;;;12.10;10.18;;;;;;;8.28;100.00;94812.13;6177073;23;20492;-60
2022/09/28 01:48:20;;;;;;;3.40;2.75;;;;;;;8.39;100.00;94790.09;6176270;23;20059;-60
2022/09/28 01:50:52;;;;;;;4.30;3.50;;;;;;;8.20;100.00;94800.75;6177308;23;20041;-61
2022/09/28 01:53:28;;;;;;;3.92;3.67;;;;;;;8.14;100.00;94799.53;6176968;23;20007;-60
2022/09/28 01:55:59;;;;;;;13.60;12.35;;;;;;;8.17;100.00;94794.81;6177261;23;20043;-60
2022/09/28 01:58:36;;;;;;;15.90;14.48;;;;;;;8.19;100.00;94807.78;6175755;23;20008;-60
2022/09/28 02:01:08;;;;;;;9.05;5.47;;;;;;;8.15;100.00;94820.34;6177449;23;20029;-63
2022/09/28 02:03:50;;;;;;;5.22;4.35;;;;;;;8.09;100.00;94810.47;6177852;23;20008;-62
2022/09/28 02:06:25;;;;;;;2.40;2.17;;;;;;;8.13;100.00;94811.00;6176647;23;20016;-63
2022/09/28 02:08:56;;;;;;;4.80;2.50;;;;;;;8.14;100.00;94808.22;6175998;23;20007;-63
2022/09/28 02:11:22;;;;;;;5.47;2.78;;;;;;;8.13;100.00;94803.16;6176773;23;20056;-62
2022/09/28 02:14:10;;;;;;;3.85;3.47;;;;;;;8.11;100.00;94798.03;6176706;23;20001;-62
2022/09/28 02:16:41;;;;;;;4.03;3.55;;;;;;;8.12;100.00;94793.63;6177285;23;19997;-63
2022/09/28 02:19:11;;;;;;;5.63;2.60;;;;;;;8.06;100.00;94799.44;6176533;23;20044;-69
2022/09/28 02:21:52;;;;;;;7.25;6.07;;;;;;;8.03;100.00;94777.00;6177383;22;20393;-61
2022/09/28 02:24:27;;;;;;;10.45;7.55;;;;;;;8.01;100.00;94785.00;6176235;23;20027;-65
2022/09/28 02:26:57;;;;;;;7.83;3.43;;;;;;;7.99;100.00;94786.94;6176944;23;20036;-65
2022/09/28 02:29:23;;;;;;;5.43;4.93;;;;;;;7.99;100.00;94776.47;6176585;23;20294;-65
2022/09/28 02:31:50;;;;;;;4.30;4.00;;;;;;;8.00;100.00;94769.44;6176787;23;20435;-66
2022/09/28 02:34:16;;;;;;;9.20;3.85;;;;;;;7.97;100.00;94773.16;6176587;23;20453;-65
2022/09/28 02:36:43;;;;;;;3.35;3.15;;;;;;;7.96;100.00;94768.91;6176529;23;20077;-65
2022/09/28 02:39:15;;;;;;;4.38;4.05;;;;;;;7.95;100.00;94755.94;6176425;23;20531;-70
2022/09/28 02:41:53;;;;;;;3.58;3.28;;;;;;;7.85;100.00;94762.06;6177309;23;20046;-70
2022/09/28 02:44:49;;;;;;;8.43;3.45;;;;;;;7.88;100.00;94774.06;6176660;23;20090;-70
2022/09/28 02:47:32;;;;;;;6.30;2.73;;;;;;;7.88;100.00;94763.59;6176515;23;20013;-70
2022/09/28 02:50:24;;;;;;;6.30;2.95;;;;;;;7.85;100.00;94775.16;6176116;23;20032;-70
2022/09/28 02:53:11;;;;;;;4.20;2.38;;;;;;;7.86;100.00;94768.16;6177362;23;20439;-69
2022/09/28 02:56:04;;;;;;;2.25;1.90;;;;;;;7.83;100.00;94744.84;6176800;23;20023;-70
2022/09/28 02:59:01;;;;;;;2.75;1.80;;;;;;;7.86;100.00;94786.50;6176484;23;20004;-64
2022/09/28 03:01:45;;;;;;;2.03;1.83;;;;;;;7.85;100.00;94776.97;6176390;23;20013;-65
2022/09/28 03:04:38;;;;;;;2.72;2.00;;;;;;;7.83;100.00;94773.66;6176273;23;20015;-64
2022/09/28 03:07:17;;;;;;;3.10;2.00;;;;;;;7.85;100.00;94776.97;6176304;22;20507;-64
2022/09/28 03:09:58;;;;;;;2.97;2.20;;;;;;;7.88;100.00;94787.16;6176831;22;20013;-65
2022/09/28 03:12:24;;;;;;;2.95;2.17;;;;;;;7.88;100.00;94782.72;6176573;23;20470;-64
2022/09/28 03:15:09;;;;;;;3.45;2.40;;;;;;;7.87;100.00;94791.56;6176581;23;19993;-65
2022/09/28 03:17:34;;;;;;;2.40;2.20;;;;;;;7.87;100.00;94780.28;6176200;22;20046;-69
2022/09/28 03:20:01;;;;;;;3.85;2.17;;;;;;;7.88;100.00;94787.16;6176623;23;20076;-60
2022/09/28 03:22:26;;;;;;;5.82;2.60;;;;;;;7.90;100.00;94787.84;6176637;22;20005;-60
2022/09/28 03:24:51;;;;;;;2.30;2.08;;;;;;;7.95;100.00;94780.34;6176322;23;20005;-61
2022/09/28 03:27:17;;;;;;;3.05;2.25;;;;;;;7.89;100.00;94775.72;6176083;23;20100;-61
2022/09/28 03:29:43;;;;;;;3.92;2.35;;;;;;;7.84;100.00;94773.53;6176272;23;20545;-60
2022/09/28 03:32:08;;;;;;;2.33;2.00;;;;;;;7.81;100.00;94765.97;6176706;23;20009;-61
2022/09/28 03:34:34;;;;;;;4.22;2.13;;;;;;;7.80;100.00;94763.47;6176833;23;20004;-60
2022/09/28 03:37:00;;;;;;;2.50;1.95;;;;;;;7.78;100.00;94766.25;6175886;22;20130;-69
2022/09/28 03:39:25;;;;;;;4.55;2.17;;;;;;;7.82;100.00;94764.16;6176033;23;20036;-64
2022/09/28 03:41:50;;;;;;;2.40;1.98;;;;;;;7.81;100.00;94759.88;6176488;23;20035;-67
2022/09/28 03:44:16;;;;;;;3.92;2.88;;;;;;;7.82;100.00;94759.75;6176611;23;20008;-67
2022/09/28 03:46:41;;;;;;;2.45;2.33;;;;;;;7.84;100.00;94743.84;6175897;23;20013;-67
2022/09/28 03:49:08;;;;;;;5.40;4.90;;;;;;;7.81;100.00;94741.53;6176215;23;20011;-67
2022/09/28 03:51:33;;;;;;;5.88;5.47;;;;;;;7.82;100.00;94737.94;6149721;22;19997;-67
2022/09/28 03:53:58;;;;;;;5.50;5.03;;;;;;;7.85;100.00;94724.56;6176957;23;20050;-68
2022/09/28 03:56:25;;;;;;;6.40;4.85;;;;;;;7.90;100.00;94719.69;6175910;23;20100;-61
2022/09/28 03:58:50;;;;;;;8.27;7.68;;;;;;;7.94;100.00;94712.34;6176644;23;20021;-64
2022/09/28 04:01:16;;;;;;;4.35;3.22;;;;;;;7.96;100.00;94711.22;6176407;23;20028;-65
2022/09/28 04:03:41;;;;;;;2.65;2.45;;;;;;;7.92;100.00;94699.41;6176235;23;20428;-65
2022/09/28 04:06:07;;;;;;;6.25;2.58;;;;;;;7.94;100.00;94692.22;6176641;23;20444;-63
2022/09/28 04:08:32;;;;;;;3.05;2.20;;;;;;;7.98;100.00;94692.75;6176698;22;20005;-65
2022/09/28 04:11:00;;;;;;;2.70;2.50;;;;;;;7.95;100.00;94700.88;6176239;23;19997;-64
2022/09/28 04:13:27;;;;;;;2.78;2.28;;;;;;;7.94;100.00;94688.75;6176099;23;20001;-65
2022/09/28 04:15:55;;;;;;;2.40;2.20;;;;;;;7.92;100.00;94690.69;6176687;23;20009;-60
2022/09/28 04:18:22;;;;;;;2.95;2.70;;;;;;;7.94;100.00;94697.47;6175684;23;20013;-61
2022/09/28 04:20:56;;;;;;;3.97;3.10;;;;;;;7.93;100.00;94692.34;6175457;23;20601;-60
2022/09/28 04:23:21;;;;;;;2.70;2.50;;;;;;;7.98;100.00;94692.75;6176659;23;20001;-61
2022/09/28 04:25:51;;;;;;;5.22;2.70;;;;;;;7.90;100.00;94672.53;6175962;23;20027;-61
2022/09/28 04:31:00;;;;;;;3.00;2.78;;;;;;;7.83;100.00;94660.97;6175917;23;20012;-61
2022/09/28 04:33:25;;;;;;;2.75;2.58;;;;;;;7.83;100.00;94663.59;6176134;23;20017;-60
2022/09/28 04:35:51;;;;;;;2.63;2.42;;;;;;;7.84;100.00;94667.88;6176298;23;20004;-62
2022/09/28 04:38:16;;;;;;;3.65;2.83;;;;;;;7.80;100.00;94663.91;6176143;23;20005;-57
2022/09/28 04:40:41;;;;;;;3.17;2.90;;;;;;;7.79;100.00;94662.25;6175923;23;20005;-56
2022/09/28 04:43:07;;;;;;;2.65;2.45;;;;;;;7.80;100.00;94661.28;6177035;23;19997;-57
2022/09/28 04:45:32;;;;;;;2.03;1.92;;;;;;;7.80;100.00;94664.75;6176349;23;20612;-56
2022/09/28 04:47:57;;;;;;;2.55;2.35;;;;;;;7.83;100.00;94667.06;6175642;23;20011;-56
2022/09/28 04:50:23;;;;;;;2.13;2.03;;;;;;;7.85;100.00;94672.16;6176059;23;20085;-57
2022/09/28 04:52:48;;;;;;;2.67;2.13;;;;;;;7.84;100.00;94675.72;6176758;23;20065;-56
2022/09/28 04:55:14;;;;;;;3.55;2.92;;;;;;;7.80;100.00;94663.91;6176588;23;20334;-64
2022/09/28 04:57:39;;;;;;;2.72;2.63;;;;;;;7.75;100.00;94646.03;6176189;22;19997;-66
2022/09/28 05:00:05;;;;;;;3.00;2.80;;;;;;;7.79;100.00;94641.28;6176291;23;20088;-65
2022/09/28 05:02:31;;;;;;;3.10;2.80;;;;;;;7.82;100.00;94636.59;6176217;23;20036;-65
2022/09/28 05:04:57;;;;;;;3.08;2.58;;;;;;;7.81;100.00;94636.72;6176053;23;20432;-65
2022/09/28 05:07:24;;;;;;;2.97;2.78;;;;;;;7.74;100.00;94649.63;6175791;23;20010;-65
2022/09/28 05:09:49;;;;;;;2.67;2.42;;;;;;;7.74;100.00;94660.91;6176035;23;20076;-65
2022/09/28 05:12:15;;;;;;;2.80;2.60;;;;;;;7.72;100.00;94643.69;6176808;22;20029;-65
2022/09/28 05:14:40;;;;;;;18.90;17.50;;;;;;;7.73;100.00;94627.00;6176405;23;20058;-61
2022/09/28 05:17:06;;;;;;;34.75;31.77;;;;;;;7.72;100.00;94636.66;6175858;22;20020;-65
2022/09/28 05:19:33;;;;;;;9.73;8.88;;;;;;;7.70;100.00;94609.78;6175547;22;20005;-65
2022/09/28 05:22:02;;;;;;;10.40;9.60;;;;;;;7.67;100.00;94597.00;6176285;23;20068;-65
2022/09/28 05:24:28;;;;;;;11.45;10.55;;;;;;;7.68;100.00;94597.81;6175598;23;20005;-65
2022/09/28 05:26:53;;;;;;;5.55;4.68;;;;;;;7.68;100.00;94575.06;6175058;23;20549;-65
2022/09/28 05:29:19;;;;;;;2.72;2.63;;;;;;;7.66;100.00;94582.25;6175226;23;20348;-66
2022/09/28 05:31:44;;;;;;;3.10;2.90;;;;;;;7.65;100.00;94601.56;6175211;23;20001;-65
2022/09/28 05:34:09;;;;;;;2.40;2.30;;;;;;;7.68;100.00;94608.28;6176735;23;20050;-60
2022/09/28 05:36:36;;;;;;;2.50;2.30;;;;;;;7.73;100.00;94617.34;6175721;23;19993;-64
2022/09/28 05:39:02;;;;;;;2.60;2.40;;;;;;;7.74;100.00;94660.91;6175310;23;20012;-64
2022/09/28 05:41:28;;;;;;;2.55;2.35;;;;;;;7.76;100.00;94662.56;6174103;23;20080;-64
2022/09/28 05:43:53;;;;;;;1.90;1.80;;;;;;;7.71;100.00;94655.97;6174938;23;20082;-64
2022/09/28 05:46:20;;;;;;;2.97;2.10;;;;;;;7.72;100.00;94698.72;6173057;23;20049;-64
2022/09/28 05:48:46;;;;;;;4.78;2.75;;;;;;;7.76;100.00;94699.25;6174083;23;20005;-65
2022/09/28 05:51:11;;;;;;;9.88;8.90;;;;;;;7.88;100.00;94701.50;6174218;23;20604;-65
2022/09/28 05:53:36;;;;;;;6.82;6.10;;;;;;;7.86;100.00;94700.81;6174748;23;20339;-60
2022/09/28 05:56:02;;;;;;;3.13;2.92;;;;;;;7.85;100.00;94685.25;6174505;23;19998;-61
2022/09/28 05:58:28;;;;;;;2.58;1.98;;;;;;;7.80;100.00;94693.56;6173576;23;20431;-61
2022/09/28 06:00:56;;;;;;;2.50;2.30;;;;;;;7.72;100.00;94681.19;6175605;23;20001;-60
2022/09/28 06:03:22;;;;;;;3.42;3.13;;;;;;;7.78;100.00;94674.56;6173644;23;20004;-60
2022/09/28 06:05:48;;;;;;;3.22;2.60;;;;;;;7.74;100.00;94660.09;6176106;23;20316;-60
2022/09/28 06:08:13;;;;;;;2.60;2.38;;;;;;;7.73;100.00;94658.44;6175941;23;20362;-61
2022/09/28 06:10:39;;;;;;;2.35;2.25;;;;;;;7.62;100.00;94641.13;6175457;23;20005;-70
2022/09/28 06:13:05;;;;;;;4.00;2.80;;;;;;;7.65;100.00;94645.28;6176464;23;20008;-65
2022/09/28 06:15:32;;;;;;;2.58;2.35;;;;;;;7.65;100.00;94640.88;6175994;22;20001;-64
2022/09/28 06:18:15;;;;;;;2.22;2.05;;;;;;;7.64;100.00;94641.84;6175226;23;20434;-64
2022/09/28 06:20:41;;;;;;;1.75;1.65;;;;;;;7.69;100.00;94644.00;6176787;23;20084;-64
2022/09/28 06:23:11;;;;;;;2.03;1.92;;;;;;;7.73;100.00;94642.72;6173742;23;20105;-64
2022/09/28 06:25:37;;;;;;;2.38;2.17;;;;;;;7.76;100.00;94636.34;6176412;23;20012;-64
2022/09/28 06:28:04;;;;;;;1.98;1.88;;;;;;;7.76;100.00;94625.88;6176712;23;20343;-64
2022/09/28 06:30:32;;;;;;;2.75;2.55;;;;;;;7.77;100.00;94640.63;6175738;23;20070;-63
2022/09/28 06:32:59;;;;;;;3.00;2.80;;;;;;;7.79;100.00;94641.28;6177359;23;20001;-67
2022/09/28 06:35:27;;;;;;;2.60;2.40;;;;;;;7.82;100.00;94631.34;6175226;23;19994;-64
2022/09/28 06:37:53;;;;;;;2.75;2.55;;;;;;;7.83;100.00;94642.63;6177824;23;20001;-68
2022/09/28 06:40:19;;;;;;;6.45;5.00;;;;;;;7.83;100.00;94640.84;6177766;23;20027;-71
2022/09/28 06:42:57;;;;;;;8.52;5.85;;;;;;;7.85;100.00;94643.34;6177969;23;20031;-71
2022/09/28 06:45:24;;;;;;;5.72;5.20;;;;;;;7.90;100.00;94627.97;6177562;22;19997;-68
2022/09/28 06:47:59;;;;;;;7.75;5.10;;;;;;;7.93;100.00;94630.28;6177143;23;20009;-68
2022/09/28 06:50:28;;;;;;;5.10;4.70;;;;;;;7.99;100.00;94632.28;6177409;23;20001;-62
2022/09/28 06:52:54;;;;;;;4.75;4.45;;;;;;;8.04;100.00;94639.72;6175827;23;20351;-67
2022/09/28 06:55:20;;;;;;;5.65;5.20;;;;;;;8.03;100.00;94644.13;6177880;22;20066;-68
2022/09/28 06:57:46;;;;;;;15.52;11.55;;;;;;;8.05;100.00;94627.41;6178182;23;20007;-69
2022/09/28 07:00:12;;;;;;;10.07;9.00;;;;;;;8.10;100.00;94630.41;6151338;23;20419;-69
2022/09/28 07:02:37;;;;;;;21.98;20.08;;;;;;;8.20;100.00;94632.94;6176280;23;19998;-68
2022/09/28 07:05:07;;;;;;;24.63;22.42;;;;;;;8.21;100.00;94621.50;6177493;23;20001;-69
2022/09/28 07:07:32;;;;;;;21.63;18.13;;;;;;;8.24;100.00;94614.13;6177628;23;20001;-68
2022/09/28 07:09:57;;;;;;;26.10;20.35;;;;;;;8.34;100.00;94610.59;6177648;23;20032;-63
2022/09/28 07:12:24;;;;;;;24.65;19.60;;;;;;;8.36;100.00;94600.75;6177357;23;20068;-55
2022/09/28 07:14:54;;;;;;;19.65;15.30;;;;;;;8.36;100.00;94590.28;6177740;23;20365;-56
2022/09/28 07:17:20;;;;;;;14.82;11.32;;;;;;;8.39;100.00;94603.06;6177438;23;20036;-57
2022/09/28 07:19:51;;;;;;;8.10;7.30;;;;;;;8.37;100.00;94587.47;6178249;23;20323;-56
2022/09/28 07:22:17;;;;;;;7.88;7.18;;;;;;;8.37;100.00;94589.28;6177430;23;20536;-57
2022/09/28 07:24:43;;;;;;;8.00;7.20;;;;;;;8.39;100.00;94584.72;6177434;23;20411;-57
2022/09/28 07:27:09;;;;;;;12.00;8.32;;;;;;;8.46;100.00;94590.97;6177811;23;19997;-55
2022/09/28 07:29:34;;;;;;;18.20;10.75;;;;;;;8.51;100.00;94591.38;6177410;23;20032;-67
2022/09/28 07:31:59;;;;;;;11.70;10.57;;;;;;;8.55;100.00;94584.84;6177658;23;20004;-68
2022/09/28 07:34:25;;;;;;;13.88;8.45;;;;;;;8.58;100.00;94581.88;6177527;23;20008;-67
2022/09/28 07:36:50;;;;;;;8.85;7.45;;;;;;;8.62;100.00;94584.19;6177844;23;20085;-68
2022/09/28 07:39:16;;;;;;;7.75;7.00;;;;;;;8.72;100.00;94593.59;6177806;23;20012;-67
2022/09/28 07:41:43;;;;;;;6.85;6.25;;;;;;;8.95;100.00;94600.91;6177445;23;20011;-67
2022/09/28 07:44:08;;;;;;;5.28;4.78;;;;;;;8.89;100.00;94612.84;6177927;23;20001;-69
2022/09/28 07:46:34;;;;;;;5.32;4.88;;;;;;;8.85;100.00;94608.91;6177374;23;20059;-70
2022/09/28 07:49:01;;;;;;;4.15;3.85;;;;;;;8.79;100.00;94601.66;6176224;23;20524;-61
2022/09/28 07:51:26;;;;;;;10.73;7.38;;;;;;;8.81;100.00;94609.38;6175847;23;20016;-68
2022/09/28 07:53:54;;;;;;;4.93;3.65;;;;;;;8.88;100.00;94611.19;6176348;23;20001;-71
2022/09/28 07:56:20;;;;;;;5.00;4.03;;;;;;;8.93;100.00;94609.91;6176247;23;20553;-68
2022/09/28 07:58:46;;;;;;;6.53;3.70;;;;;;;8.95;100.00;94607.94;6175906;23;20025;-69
2022/09/28 08:01:15;;;;;;;4.00;3.70;;;;;;;8.95;100.00;94610.56;6177404;23;20050;-69
2022/09/28 08:03:45;;;;;;;5.93;4.00;;;;;;;9.01;100.00;94604.69;6176250;22;20076;-70
2022/09/28 08:06:13;;;;;;;11.90;8.73;;;;;;;9.06;100.00;94604.19;6177306;23;20006;-70
2022/09/28 08:08:43;;;;;;;9.30;8.02;;;;;;;9.10;100.00;94603.72;6176651;23;20004;-61
2022/09/28 08:11:15;;;;;;;8.45;7.53;;;;;;;9.13;100.00;94606.03;6151025;23;20003;-68
2022/09/28 08:13:42;;;;;;;5.50;4.95;;;;;;;9.22;100.00;94590.31;6177025;22;20458;-68
2022/09/28 08:16:08;;;;;;;12.27;9.73;;;;;;;9.33;100.00;94592.63;6151267;23;20001;-65
2022/09/28 08:18:34;;;;;;;11.68;10.68;;;;;;;9.38;100.00;94592.16;6177240;23;20021;-67
2022/09/28 08:23:49;;;;;;;14.88;13.48;;;;;;;9.45;100.00;94580.00;6175179;23;20473;-69
2022/09/28 08:26:15;;;;;;;13.52;12.40;;;;;;;9.56;100.00;94584.13;6177257;23;20012;-69
2022/09/28 08:28:42;;;;;;;13.88;12.65;;;;;;;9.64;100.00;94568.38;6177167;23;20085;-57
2022/09/28 08:31:08;;;;;;;13.60;12.30;;;;;;;9.78;100.00;94573.94;6176714;23;20004;-63
2022/09/28 08:33:34;;;;;;;12.25;11.30;;;;;;;9.86;100.00;94574.78;6175490;23;20446;-63
2022/09/28 08:36:03;;;;;;;11.30;10.30;;;;;;;9.96;100.00;94576.44;6175261;23;20071;-64
2022/09/28 08:38:29;;;;;;;11.35;10.35;;;;;;;10.01;100.00;94569.66;6175495;23;19996;-63
2022/09/28 08:40:57;;;;;;;7.97;7.18;;;;;;;10.04;100.00;94563.25;6177075;23;20001;-63
2022/09/28 08:43:34;;;;;;;8.50;7.80;;;;;;;10.10;100.00;94565.22;6176356;23;20075;-63
2022/09/28 08:46:00;;;;;;;12.30;11.23;;;;;;;10.05;100.00;94559.66;6176006;23;20080;-79
2022/09/28 08:48:43;;;;;;;11.30;10.30;;;;;;;10.09;100.00;94565.41;6176370;23;20020;-65
2022/09/28 08:51:27;;;;;;;7.57;6.97;;;;;;;10.15;100.00;94554.22;6152202;23;20004;-61
2022/09/28 08:54:04;;;;;;;11.63;10.52;;;;;;;10.20;100.00;94580.81;6177393;23;20046;-61
2022/09/28 08:56:50;;;;;;;11.48;10.40;;;;;;;10.22;100.00;94588.56;6174824;23;20363;-62
2022/09/28 08:59:25;;;;;;;10.00;8.13;;;;;;;9.96;100.00;94605.34;6176368;23;20017;-61
2022/09/28 09:02:02;;;;;;;6.20;5.80;;;;;;;9.69;100.00;94596.78;6175742;23;20012;-61
2022/09/28 09:04:28;;;;;;;6.00;5.57;;;;;;;9.54;100.00;94586.09;6175503;23;20225;-60
2022/09/28 09:07:11;;;;;;;6.53;6.05;;;;;;;9.58;100.00;94587.41;6176022;23;20005;-62
2022/09/28 09:09:39;;;;;;;6.28;5.78;;;;;;;9.63;100.00;94595.66;6176157;23;20005;-60
2022/09/28 09:12:23;;;;;;;6.43;5.93;;;;;;;9.57;100.00;94588.38;6175562;23;20004;-60
2022/09/28 09:15:06;;;;;;;6.03;5.60;;;;;;;9.59;100.00;94589.03;6174687;23;20058;-59
2022/09/28 09:17:39;;;;;;;5.93;5.43;;;;;;;9.46;100.00;94600.88;6175071;23;20044;-60
2022/09/28 09:20:23;;;;;;;5.82;5.43;;;;;;;9.44;100.00;94589.72;6174158;23;19997;-60
2022/09/28 09:22:56;;;;;;;6.25;5.75;;;;;;;9.45;100.00;94604.47;6175676;23;19993;-60
2022/09/28 09:25:27;;;;;;;5.95;5.55;;;;;;;9.47;100.00;94588.53;6174869;23;20320;-63
2022/09/28 09:28:15;;;;;;;6.25;5.70;;;;;;;9.58;100.00;94582.16;6176925;22;20437;-54
2022/09/28 09:31:07;;;;;;;8.40;6.35;;;;;;;9.75;100.00;94581.19;6176344;23;20011;-55
2022/09/28 09:34:07;;;;;;;8.02;6.80;;;;;;;9.80;100.00;94566.72;6176763;23;20508;-56
2022/09/28 09:36:38;;;;;;;8.73;6.53;;;;;;;10.04;100.00;94558.81;6176517;23;19993;-56
2022/09/28 09:39:20;;;;;;;6.75;5.68;;;;;;;10.20;100.00;94556.34;6175999;23;20007;-57
2022/09/28 09:42:02;;;;;;;5.80;5.30;;;;;;;10.25;100.00;94549.56;6176482;23;20426;-57
2022/09/28 09:44:47;;;;;;;5.22;4.82;;;;;;;10.38;100.00;94545.59;6176980;23;20004;-66
2022/09/28 09:47:31;;;;;;;5.45;4.32;;;;;;;10.47;100.00;94544.59;6176513;23;20009;-62
2022/09/28 09:50:28;;;;;;;5.75;5.25;;;;;;;10.52;100.00;94542.31;6176291;23;20001;-69
2022/09/28 09:53:14;;;;;;;6.88;6.30;;;;;;;10.58;100.00;94540.78;6176625;23;20460;-71
2022/09/28 09:55:44;;;;;;;9.57;8.88;;;;;;;10.79;100.00;94534.13;6176009;23;19997;-71
2022/09/28 09:58:38;;;;;;;13.25;12.25;;;;;;;10.97;100.00;94526.00;6174541;23;20096;-70
2022/09/28 10:01:13;;;;;;;15.65;14.27;;;;;;;11.17;100.00;94521.09;6175925;23;20011;-70
2022/09/28 10:03:43;;;;;;;15.77;14.48;;;;;;;11.37;100.00;94520.63;6176145;23;20008;-61
2022/09/28 10:06:15;;;;;;;14.07;12.88;;;;;;;11.54;100.00;94521.34;6176342;23;20009;-60
2022/09/28 10:08:47;;;;;;;10.70;9.65;;;;;;;11.78;100.00;94516.84;6176585;23;20403;-65
2022/09/28 10:11:28;;;;;;;8.13;7.43;;;;;;;11.85;100.00;94520.44;6176763;23;20051;-65
2022/09/28 10:13:54;;;;;;;6.13;5.63;;;;;;;11.75;100.00;94518.03;6176187;23;20025;-65
2022/09/28 10:16:19;;;;;;;5.45;5.15;;;;;;;11.71;100.00;94506.19;6175986;23;20000;-65
2022/09/28 10:18:46;;;;;;;6.15;5.75;;;;;;;11.78;100.00;94501.03;6176141;23;20340;-64
2022/09/28 10:21:17;;;;;;;5.65;5.20;;;;;;;11.91;100.00;94498.63;6176364;23;20015;-65
2022/09/28 10:23:43;;;;;;;6.50;6.10;;;;;;;11.94;100.00;94513.28;6176023;23;20029;-61
2022/09/28 10:26:21;;;;;;;7.07;6.40;;;;;;;11.81;100.00;94511.22;6175528;23;20431;-61
2022/09/28 10:28:50;;;;;;;6.20;5.80;;;;;;;11.67;100.00;94510.19;6176448;23;20005;-61
2022/09/28 10:31:43;;;;;;;6.78;5.57;;;;;;;11.61;100.00;94506.47;6176038;23;20001;-60
2022/09/28 10:34:15;;;;;;;5.50;5.10;;;;;;;11.66;100.00;94516.47;6175746;23;20001;-61
2022/09/28 10:37:05;;;;;;;5.90;5.40;;;;;;;11.57;100.00;94503.34;6176315;23;20029;-60
2022/09/28 10:39:39;;;;;;;6.28;5.88;;;;;;;11.59;100.00;94514.53;6177805;23;20004;-61
2022/09/28 10:42:08;;;;;;;7.50;6.93;;;;;;;11.57;100.00;94510.44;6178279;23;20001;-67
2022/09/28 10:44:57;;;;;;;8.55;7.78;;;;;;;11.44;100.00;94518.94;6176722;23;20008;-67
2022/09/28 10:47:25;;;;;;;10.05;9.18;;;;;;;11.39;100.00;94508.09;6175162;23;20009;-66
2022/09/28 10:49:53;;;;;;;9.38;8.77;;;;;;;11.41;100.00;94498.19;6177090;23;20005;-66
2022/09/28 10:52:35;;;;;;;10.20;9.40;;;;;;;11.46;100.00;94490.59;6176914;23;20524;-66
2022/09/28 10:55:22;;;;;;;10.18;9.45;;;;;;;11.42;100.00;94490.13;6177671;23;20001;-68
2022/09/28 10:57:47;;;;;;;10.77;9.52;;;;;;;11.46;100.00;94501.97;6177116;23;20009;-67
2022/09/28 11:00:31;;;;;;;9.77;8.98;;;;;;;11.39;100.00;94500.19;6173819;23;20050;-68
2022/09/28 11:02:57;;;;;;;10.18;9.38;;;;;;;11.37;100.00;94499.56;6172409;23;20443;-63
2022/09/28 11:05:28;;;;;;;12.20;11.20;;;;;;;11.37;100.00;94495.09;6171224;23;20610;-64
2022/09/28 11:07:57;;;;;;;12.65;11.68;;;;;;;11.40;100.00;94494.75;6171955;23;20012;-63
2022/09/28 11:10:26;;;;;;;14.07;12.70;;;;;;;11.46;100.00;94478.25;6172311;22;20001;-64
2022/09/28 11:12:53;;;;;;;13.18;12.07;;;;;;;11.51;100.00;94482.16;6171724;23;19997;-64
2022/09/28 11:15:22;;;;;;;13.43;11.30;;;;;;;11.64;100.00;94468.38;6171338;23;20394;-65
2022/09/28 11:17:47;;;;;;;13.15;12.10;;;;;;;11.67;100.00;94479.38;6171208;23;20090;-65
2022/09/28 11:20:29;;;;;;;11.70;10.75;;;;;;;11.72;100.00;94471.75;6171699;23;20427;-66
2022/09/28 11:22:57;;;;;;;11.95;11.05;;;;;;;11.86;100.00;94456.16;6172814;23;20005;-64
2022/09/28 11:25:26;;;;;;;12.50;11.45;;;;;;;12.01;100.00;94449.06;6171903;23;20004;-68
2022/09/28 11:27:51;;;;;;;17.02;15.52;;;;;;;12.23;100.00;94456.28;6173484;23;20012;-67
2022/09/28 11:30:25;;;;;;;11.00;10.07;;;;;;;12.41;100.00;94454.09;6172812;22;20347;-68
2022/09/28 11:32:55;;;;;;;12.30;11.10;;;;;;;12.60;100.00;94447.41;6171589;23;20057;-68
2022/09/28 11:35:31;;;;;;;9.00;8.20;;;;;;;12.85;100.00;94448.91;6174377;23;19997;-68
2022/09/28 11:38:17;;;;;;;8.63;6.18;;;;;;;12.94;100.00;94452.25;6171188;23;20017;-68
2022/09/28 11:41:04;;;;;;;10.20;9.35;;;;;;;12.94;100.00;94436.41;6172265;23;20057;-65
2022/09/28 11:43:57;;;;;;;9.13;8.43;;;;;;;13.11;100.00;94439.63;6170889;23;19997;-68
2022/09/28 11:46:31;;;;;;;4.50;4.10;;;;;;;13.27;100.00;94434.09;6172597;23;20428;-67
2022/09/28 11:49:20;;;;;;;2.97;2.58;;;;;;;13.09;100.00;94442.44;6173417;23;20005;-68